OPA Logo
 
ASOS:
At:2019.06.26 1035 UTC
Wind:
Viz: 10 mile(s)
Sky: mostly clear
Temp: 44 F (7 C)
DewP: 41 F (5 C)
RH: 87%
Baro: 29.89 in.
ob: KBDN 261035Z AUTO 00000KT 10SM FEW090 07/05 A2989 RMK AO2

ASOS: KRDM
At:2019.06.26 0956 UTC
Wind:150° @ 3KT
Viz: 10 mile(s)
Sky: clear
Temp: 42.1 F (5.6 C)
DewP: 39.9 F (4.4 C)
RH: 91%
Baro: 29.89 in.
ob: KRDM 260956Z AUTO 15003KT 10SM CLR 06/04 A2989 RMK AO2 SLP110 T00560044
Apache-SSL Logo

Valid HTML 4.01!

Central Oregon OPA Chapter

Chapter Officers 2006:

President
Gary E. Miller
109 NW Wilmington Ave.
Bend OR 97701
541 382-8588
gem@rellim.com

Vice President:
Open

Secretary/Treasurer:
Don Wilfong
210 SE Cessna Dr
Bend OR 97702
541 389-1456
dwnw@bendbroadband.com


Web page by: gem@rellim.com